Airfield :
LOGIN :

Register | Disclaimer

   EN    FR    IT 

 










Legend :    VFR   Marginal VFR   IFR   Intensive IFR   Very Intensive IFR
Visi :
Ceiling :
>= 8 km
>= 3000ft
5 to 8 km
1000 to 3000 ft
1500m to 5 km
500 to 1000 ft
800 to 1500m
200 to 500 ft
< 800m
< 200 ft
Symbols :   Thunderstorms  Fog  Heavy snow  Heavy precipitations  Wind > 20 kt
SIGMETs :     Misc.  Thunderstorms  Icing  Turbulence  Mountain Waves  Volcanic Ashes






- Airport Elevation : 29 ft


LIRM - Grazzanise Caserta

CURRENT METAR :
  • 240355Z 03006KT 9999 -RA FEW025CB SCT030 BKN060 07/06 Q1008 RETS RMK OVC VIS MIN 9999 WIND THR06 08006KT BLU

EXPIRED METARs :
  • 240255Z 27007KT 9999 TSRA FEW025CB SCT030 BKN060 08/07 Q1008
  • 240155Z 04004KT 9999 -TSRA FEW030CB SCT035 BKN070 08/07 Q1007 RMK BKN VIS MIN 9999 BLU
  • 240055Z 04003KT 9999 SCT030 BKN070 07/05 Q1009 RMK BKN VIS MIN 9999 WIND THR06 08004KT BLU
  • 232355Z 02003KT 9999 SCT030 08/05 Q1009 RMK SCT VIS MIN 9999 WIND THR06 05003KT BLU

TAF TAF LIRM
Valid from the 24 at 03:00 until the 24 at 12:00 UTC


240200Z 2403/2412 04008KT 9999 SCT030
TEMPO 2403/2412 3000 TSRA FEW020CB BKN030
BECMG 2405/2407 25010KT
PROB40
TEMPO 2409/2412 24015G25KT



MET'MAP, your aeronautical weather chart ! - Copyright ORBIFLY December 2007 - Disclaimer

ORBIFLY MET'MAP TEAM :

Programming & Development : Alexandra Zaïnal
Original concept : Baudouin d'Aumeries
Technical & hardware support : Manuel Goepfert
Assistance : Marc-Olivier Méhu




SOURCES & CREDITS :

   NOAA